Hord, Illinois
Current Conditions -  °F | °C
As of 6:15 PM on Tuesday 25 Nov 2014 (Local Time) from KFOA Reporting Station
Clear Clear  
Wind Chill: 29°   Ceiling: Unl
Heat Index: 29°   Visibility: 7mi
Dew Point: 26°   Wind: 3mph
Humidity: 91%   Direction: 100°E
Pressure: 30.21"   Gusts: NA
Location:  38.8267°N, 88.5024°W
Report Text: KFOA 260015Z AUTO 10003KT 7SM CLR M02/M03 A3021 RMK AO2 T10181031
Loading
Personal Weather Stations






























Interactive Weather Map New forecast layout! Learn more

10-Day Weather Forecast

Advertisements
Track Severe Weather on mobile